createdAt,value
2022-10-20T00:01:18.484Z,3.20
2022-10-20T00:03:47.038Z,4.60
2022-10-20T00:06:17.338Z,3.70
2022-10-20T00:08:47.895Z,3.30
2022-10-20T00:11:18.639Z,3.90
2022-10-20T00:13:50.404Z,3.70
2022-10-20T00:16:19.224Z,3.87
2022-10-20T00:18:47.810Z,3.73
2022-10-20T00:21:17.831Z,3.80
2022-10-20T00:23:47.552Z,3.80
2022-10-20T00:26:17.649Z,4.47
2022-10-20T00:28:46.802Z,4.43
2022-10-20T00:31:16.145Z,4.33
2022-10-20T00:33:44.526Z,3.23
2022-10-20T00:36:14.971Z,3.97
2022-10-20T00:38:43.588Z,4.50
2022-10-20T00:41:13.997Z,3.80
2022-10-20T00:43:44.273Z,3.77
2022-10-20T00:46:13.098Z,3.50
2022-10-20T00:48:44.486Z,3.07
2022-10-20T00:51:14.364Z,3.50
2022-10-20T00:53:42.757Z,3.47
2022-10-20T00:56:11.373Z,3.90
2022-10-20T00:58:41.268Z,3.77
2022-10-20T01:01:09.804Z,3.40
2022-10-20T01:03:42.593Z,3.27
2022-10-20T01:06:11.301Z,3.50
2022-10-20T01:08:39.658Z,3.33
2022-10-20T01:11:18.222Z,2.90
2022-10-20T01:13:58.840Z,2.67
2022-10-20T01:16:34.083Z,2.80
2022-10-20T01:19:11.005Z,2.90
2022-10-20T01:22:02.110Z,2.43
2022-10-20T01:24:47.927Z,3.27
2022-10-20T01:27:32.009Z,3.03
2022-10-20T01:30:08.816Z,3.37
2022-10-20T01:32:45.773Z,3.10
2022-10-20T01:35:20.963Z,3.03
2022-10-20T01:37:52.466Z,3.20
2022-10-20T01:40:27.939Z,2.80
2022-10-20T01:43:00.772Z,2.30
2022-10-20T01:45:32.223Z,2.70
2022-10-20T01:48:08.634Z,2.50
2022-10-20T01:50:37.546Z,3.30
2022-10-20T01:53:06.220Z,3.03
2022-10-20T01:55:35.147Z,3.10
2022-10-20T01:58:17.744Z,3.03
2022-10-20T02:00:46.322Z,3.00
2022-10-20T02:03:34.092Z,3.10
2022-10-20T02:06:15.472Z,3.40
2022-10-20T02:08:45.585Z,3.20
2022-10-20T02:11:17.796Z,3.67
2022-10-20T02:13:47.776Z,3.30
2022-10-20T02:16:19.400Z,3.03
2022-10-20T02:18:48.282Z,3.43
2022-10-20T02:21:17.679Z,3.57
2022-10-20T02:23:47.497Z,3.27
2022-10-20T02:26:16.990Z,3.60
2022-10-20T02:28:49.875Z,3.50
2022-10-20T02:31:19.161Z,3.80
2022-10-20T02:33:47.831Z,2.90
2022-10-20T02:36:19.482Z,3.57
2022-10-20T02:38:48.068Z,3.20
2022-10-20T02:41:16.571Z,3.50
2022-10-20T02:43:44.946Z,4.23
2022-10-20T02:48:47.939Z,4.30
2022-10-20T02:51:17.446Z,3.57
2022-10-20T02:53:46.985Z,3.80
2022-10-20T02:56:15.442Z,3.90
2022-10-20T02:58:44.060Z,3.40
2022-10-20T03:01:12.645Z,3.50
2022-10-20T03:03:46.015Z,3.87
2022-10-20T03:06:16.718Z,3.90
2022-10-20T03:08:45.597Z,3.70
2022-10-20T03:11:14.015Z,3.90
2022-10-20T03:13:42.526Z,4.07
2022-10-20T03:16:10.896Z,4.33
2022-10-20T03:18:39.475Z,4.40
2022-10-20T03:21:09.873Z,4.00
2022-10-20T03:23:38.286Z,3.93
2022-10-20T03:26:08.086Z,3.50
2022-10-20T03:28:36.601Z,3.97
2022-10-20T03:31:05.076Z,4.00
2022-10-20T03:33:33.677Z,4.30
2022-10-20T03:36:02.162Z,3.90
2022-10-20T03:38:34.289Z,5.30
2022-10-20T03:41:02.812Z,4.30
2022-10-20T03:43:31.638Z,4.07
2022-10-20T03:46:04.587Z,4.93
2022-10-20T03:48:33.110Z,3.87
2022-10-20T03:51:02.041Z,4.20
2022-10-20T03:53:31.877Z,3.60
2022-10-20T03:56:00.188Z,3.20
2022-10-20T03:58:28.809Z,3.60
2022-10-20T04:00:57.202Z,3.37
2022-10-20T04:03:25.765Z,3.40
2022-10-20T04:05:54.172Z,3.90
2022-10-20T04:08:22.559Z,3.83
2022-10-20T04:10:52.475Z,3.50
2022-10-20T04:13:20.822Z,3.80
2022-10-20T04:15:49.273Z,3.80
2022-10-20T04:18:17.595Z,4.10
2022-10-20T04:20:46.419Z,4.17
2022-10-20T04:23:14.772Z,2.77
2022-10-20T04:25:49.765Z,3.20
2022-10-20T04:28:23.598Z,3.93
2022-10-20T04:30:53.199Z,4.83
2022-10-20T04:33:21.916Z,3.90
2022-10-20T04:38:22.867Z,3.40
2022-10-20T04:40:59.178Z,3.57
2022-10-20T04:43:33.439Z,3.70
2022-10-20T04:46:10.201Z,3.80
2022-10-20T04:48:43.438Z,3.40
2022-10-20T04:51:17.050Z,3.77
2022-10-20T04:53:45.597Z,4.30
2022-10-20T04:56:18.591Z,4.43
2022-10-20T04:58:50.427Z,4.17
2022-10-20T05:01:21.070Z,4.00
2022-10-20T05:03:53.045Z,3.37
2022-10-20T05:06:25.634Z,3.53
2022-10-20T05:08:58.148Z,3.07
2022-10-20T05:11:33.334Z,3.80
2022-10-20T05:14:03.480Z,4.00
2022-10-20T05:16:33.752Z,3.50
2022-10-20T05:19:02.633Z,2.90
2022-10-20T05:21:35.733Z,3.70
2022-10-20T05:24:06.151Z,2.67
2022-10-20T05:26:38.054Z,4.00
2022-10-20T05:29:11.256Z,3.83
2022-10-20T05:31:41.452Z,3.33
2022-10-20T05:34:10.845Z,4.00
2022-10-20T05:36:39.597Z,3.47
2022-10-20T05:39:11.533Z,3.80
2022-10-20T05:41:40.301Z,4.00
2022-10-20T05:44:12.417Z,3.47
2022-10-20T05:46:41.847Z,4.20
2022-10-20T05:49:16.722Z,3.17
2022-10-20T05:51:54.057Z,3.70
2022-10-20T05:54:22.830Z,3.40
2022-10-20T05:56:51.567Z,3.40
2022-10-20T05:59:24.287Z,3.23
2022-10-20T06:01:53.050Z,3.27
2022-10-20T06:04:24.270Z,3.90
2022-10-20T06:06:54.812Z,3.43
2022-10-20T06:09:27.907Z,3.70
2022-10-20T06:11:57.861Z,3.43
2022-10-20T06:14:28.143Z,2.73
2022-10-20T06:17:00.796Z,3.70
2022-10-20T06:19:29.495Z,3.60
2022-10-20T06:22:02.416Z,3.27
2022-10-20T06:24:35.231Z,3.30
2022-10-20T06:27:04.832Z,3.30
2022-10-20T06:29:35.902Z,3.00
2022-10-20T06:32:04.771Z,2.97
2022-10-20T06:34:38.455Z,3.30
2022-10-20T06:37:08.475Z,2.90
2022-10-20T06:39:37.267Z,3.30
2022-10-20T06:42:09.701Z,3.20
2022-10-20T06:44:48.580Z,2.70
2022-10-20T06:47:20.032Z,3.00
2022-10-20T06:49:51.846Z,3.23
2022-10-20T06:52:23.044Z,3.30
2022-10-20T06:54:54.030Z,3.03
2022-10-20T06:57:22.541Z,3.00
2022-10-20T06:59:52.526Z,3.73
2022-10-20T07:02:22.021Z,2.47
2022-10-20T07:04:51.501Z,2.80
2022-10-20T07:07:22.707Z,3.30
2022-10-20T07:09:51.139Z,3.03
2022-10-20T07:12:19.493Z,3.37
2022-10-20T07:14:50.609Z,3.27
2022-10-20T07:17:20.470Z,3.13
2022-10-20T07:19:48.815Z,3.27
2022-10-20T07:22:17.167Z,3.10
2022-10-20T07:24:45.612Z,3.20
2022-10-20T07:27:13.943Z,3.00
2022-10-20T07:29:43.049Z,2.70
2022-10-20T07:32:11.380Z,2.43
2022-10-20T07:34:41.514Z,2.57
2022-10-20T07:37:10.043Z,2.83
2022-10-20T07:39:39.425Z,2.50
2022-10-20T07:42:08.086Z,2.23
2022-10-20T07:44:36.658Z,2.17
2022-10-20T07:47:05.051Z,2.20
2022-10-20T07:49:48.690Z,2.07
2022-10-20T07:52:18.573Z,2.00
2022-10-20T07:54:46.929Z,1.70
2022-10-20T07:57:15.468Z,1.80
2022-10-20T07:59:43.880Z,2.00
2022-10-20T08:02:13.775Z,2.30
2022-10-20T08:04:44.174Z,2.30
2022-10-20T08:07:12.660Z,2.50
2022-10-20T08:09:42.455Z,2.70
2022-10-20T08:12:10.833Z,2.00
2022-10-20T08:14:39.159Z,2.50
2022-10-20T08:17:07.413Z,2.10
2022-10-20T08:22:20.068Z,2.43
2022-10-20T08:24:49.775Z,2.50
2022-10-20T08:27:18.162Z,2.80
2022-10-20T08:29:55.247Z,2.87
2022-10-20T08:32:36.247Z,2.83
2022-10-20T08:35:05.089Z,2.27
2022-10-20T08:37:34.605Z,2.43
2022-10-20T08:40:05.270Z,2.83
2022-10-20T08:42:39.685Z,1.93
2022-10-20T08:45:09.140Z,2.47
2022-10-20T08:47:38.433Z,2.83
2022-10-20T08:50:09.929Z,2.10
2022-10-20T08:52:40.530Z,2.50
2022-10-20T08:55:17.766Z,2.47
2022-10-20T08:57:49.366Z,2.50
2022-10-20T09:00:19.476Z,2.50
2022-10-20T09:02:48.972Z,2.27
2022-10-20T09:05:19.318Z,2.87
2022-10-20T09:07:50.082Z,1.97
2022-10-20T09:10:37.726Z,2.60
2022-10-20T09:13:09.806Z,2.07
2022-10-20T09:15:38.654Z,2.20
2022-10-20T09:18:09.930Z,2.40
2022-10-20T09:20:42.684Z,2.40
2022-10-20T09:23:35.628Z,2.13
2022-10-20T09:26:07.327Z,2.80
2022-10-20T09:28:49.217Z,2.40
2022-10-20T09:31:25.702Z,2.50
2022-10-20T09:33:54.144Z,2.00
2022-10-20T09:36:23.140Z,2.13
2022-10-20T09:38:52.844Z,2.10
2022-10-20T09:41:24.603Z,2.10
2022-10-20T09:43:58.041Z,2.63
2022-10-20T09:46:28.736Z,3.10
2022-10-20T09:48:57.199Z,2.50
2022-10-20T09:51:27.146Z,2.50
2022-10-20T09:53:58.516Z,2.30
2022-10-20T09:56:31.006Z,2.37
2022-10-20T09:59:01.303Z,2.70
2022-10-20T10:01:31.244Z,2.27
2022-10-20T10:04:02.323Z,2.47
2022-10-20T10:06:34.247Z,3.00
2022-10-20T10:09:03.270Z,2.70
2022-10-20T10:11:36.639Z,2.50
2022-10-20T10:14:06.471Z,2.60
2022-10-20T10:16:45.439Z,2.43
2022-10-20T10:19:18.620Z,2.60
2022-10-20T10:21:49.492Z,2.20
2022-10-20T10:24:33.060Z,2.57
2022-10-20T10:27:03.441Z,3.30
2022-10-20T10:29:34.910Z,2.90
2022-10-20T10:32:04.799Z,2.60
2022-10-20T10:34:49.223Z,2.67
2022-10-20T10:39:52.812Z,2.67
2022-10-20T10:42:41.438Z,2.27
2022-10-20T10:45:18.845Z,2.80
2022-10-20T10:48:04.041Z,3.20
2022-10-20T10:50:39.182Z,2.57
2022-10-20T10:53:17.202Z,3.53
2022-10-20T10:55:51.482Z,3.13
2022-10-20T10:58:28.950Z,2.63
2022-10-20T11:01:02.285Z,2.97
2022-10-20T11:03:56.342Z,3.67
2022-10-20T11:06:31.167Z,3.43
2022-10-20T11:09:10.888Z,2.43
2022-10-20T11:11:47.353Z,2.77
2022-10-20T11:14:24.617Z,3.13
2022-10-20T11:17:02.563Z,3.03
2022-10-20T11:19:44.572Z,3.27
2022-10-20T11:22:21.662Z,3.10
2022-10-20T11:24:56.156Z,3.43
2022-10-20T11:27:27.105Z,3.17
2022-10-20T11:30:04.887Z,3.50
2022-10-20T11:32:38.051Z,3.07
2022-10-20T11:35:14.826Z,3.67
2022-10-20T11:37:47.766Z,3.70
2022-10-20T11:40:24.142Z,4.13
2022-10-20T11:42:58.988Z,3.30
2022-10-20T11:45:34.047Z,4.00
2022-10-20T11:48:08.111Z,3.63
2022-10-20T11:50:36.906Z,4.20
2022-10-20T11:53:22.586Z,4.97
2022-10-20T11:56:04.683Z,4.43
2022-10-20T11:58:52.408Z,3.60
2022-10-20T12:01:30.263Z,3.13
2022-10-20T12:04:39.855Z,2.80
2022-10-20T12:07:31.885Z,3.03
2022-10-20T12:10:31.938Z,3.40
2022-10-20T12:13:08.882Z,4.10
2022-10-20T12:15:46.180Z,3.03
2022-10-20T12:18:25.518Z,3.57
2022-10-20T12:20:57.052Z,3.70
2022-10-20T12:24:13.674Z,3.97
2022-10-20T12:27:15.336Z,3.83
2022-10-20T12:29:58.197Z,4.80
2022-10-20T12:32:46.379Z,3.83
2022-10-20T12:35:47.783Z,3.47
2022-10-20T12:38:19.105Z,3.70
2022-10-20T12:40:52.807Z,3.10
2022-10-20T12:43:34.964Z,3.00
2022-10-20T12:46:10.650Z,3.27
2022-10-20T12:48:44.831Z,3.10
2022-10-20T12:51:27.076Z,3.03
2022-10-20T12:54:00.582Z,3.57
2022-10-20T12:56:34.893Z,3.60
2022-10-20T12:59:35.368Z,4.33
2022-10-20T13:02:32.434Z,3.80
2022-10-20T13:05:02.793Z,3.90
2022-10-20T13:08:07.522Z,3.40
2022-10-20T13:10:39.186Z,4.17
2022-10-20T13:13:35.035Z,3.80
2022-10-20T13:16:03.710Z,4.60
2022-10-20T13:18:34.141Z,3.80
2022-10-20T13:21:06.735Z,3.80
2022-10-20T13:23:38.275Z,5.07
2022-10-20T13:26:17.202Z,4.90
2022-10-20T13:28:46.659Z,4.00
2022-10-20T13:31:19.492Z,4.00
2022-10-20T13:34:04.530Z,3.73
2022-10-20T13:36:56.257Z,4.57
2022-10-20T13:39:31.991Z,4.03
2022-10-20T13:42:09.632Z,4.30
2022-10-20T13:44:43.768Z,4.13
2022-10-20T13:47:28.654Z,5.00
2022-10-20T13:50:03.095Z,4.87
2022-10-20T13:52:34.023Z,3.97
2022-10-20T13:55:03.219Z,4.80
2022-10-20T13:57:35.295Z,4.70
2022-10-20T14:00:06.954Z,4.23
2022-10-20T14:02:37.488Z,4.30
2022-10-20T14:05:09.664Z,4.37
2022-10-20T14:07:39.997Z,4.50
2022-10-20T14:10:18.376Z,4.53
2022-10-20T14:12:50.659Z,4.73
2022-10-20T14:15:24.433Z,5.10
2022-10-20T14:18:01.231Z,5.03
2022-10-20T14:20:32.818Z,4.50
2022-10-20T14:23:02.241Z,4.73
2022-10-20T14:25:32.591Z,4.80
2022-10-20T14:28:06.588Z,5.27
2022-10-20T14:30:40.108Z,4.90
2022-10-20T14:33:14.767Z,5.00
2022-10-20T14:35:45.014Z,4.93
2022-10-20T14:38:20.090Z,4.50
2022-10-20T14:40:53.153Z,4.40
2022-10-20T14:43:28.600Z,4.33
2022-10-20T14:45:59.432Z,4.10
2022-10-20T14:48:29.976Z,4.50
2022-10-20T14:50:58.388Z,4.40
2022-10-20T14:53:32.899Z,4.73
2022-10-20T14:56:02.646Z,4.10
2022-10-20T14:58:35.698Z,3.70
2022-10-20T15:01:32.417Z,3.63
2022-10-20T15:06:42.819Z,4.17
2022-10-20T15:09:21.620Z,4.53
2022-10-20T15:11:50.207Z,4.50
2022-10-20T15:14:20.082Z,4.70
2022-10-20T15:16:50.997Z,4.80
2022-10-20T15:19:31.503Z,5.03
2022-10-20T15:22:10.135Z,4.40
2022-10-20T15:24:40.330Z,4.70
2022-10-20T15:27:17.561Z,4.87
2022-10-20T15:29:50.587Z,3.80
2022-10-20T15:32:25.336Z,4.53
2022-10-20T15:34:53.784Z,4.73
2022-10-20T15:37:22.155Z,4.70
2022-10-20T15:39:50.483Z,5.50
2022-10-20T15:42:18.934Z,5.00
2022-10-20T15:44:48.637Z,3.90
2022-10-20T15:47:17.046Z,4.27
2022-10-20T15:49:45.496Z,4.63
2022-10-20T15:52:13.904Z,4.90
2022-10-20T15:54:43.389Z,5.00
2022-10-20T15:57:12.474Z,4.53
2022-10-20T15:59:42.158Z,4.60
2022-10-20T16:02:13.769Z,4.70
2022-10-20T16:04:42.622Z,5.17
2022-10-20T16:07:11.067Z,4.70
2022-10-20T16:09:40.201Z,5.30
2022-10-20T16:12:09.018Z,4.60
2022-10-20T16:14:39.074Z,5.40
2022-10-20T16:17:08.033Z,5.30
2022-10-20T16:19:37.943Z,4.80
2022-10-20T16:22:06.848Z,5.27
2022-10-20T16:24:36.342Z,5.27
2022-10-20T16:27:06.547Z,5.43
2022-10-20T16:29:35.743Z,5.83
2022-10-20T16:32:04.657Z,5.93
2022-10-20T16:34:33.232Z,7.23
2022-10-20T16:37:03.207Z,8.07
2022-10-20T16:39:32.310Z,7.87
2022-10-20T16:42:03.509Z,5.80
2022-10-20T16:44:34.094Z,6.80
2022-10-20T16:47:04.210Z,6.20
2022-10-20T16:49:33.075Z,5.13
2022-10-20T16:52:03.689Z,5.73
2022-10-20T16:54:35.187Z,6.20
2022-10-20T16:57:06.095Z,7.10
2022-10-20T16:59:45.630Z,7.07
2022-10-20T17:02:18.599Z,7.57
2022-10-20T17:04:51.559Z,7.60
2022-10-20T17:07:27.078Z,9.30
2022-10-20T17:09:57.561Z,10.50
2022-10-20T17:12:29.102Z,10.33
2022-10-20T17:15:00.257Z,8.60
2022-10-20T17:17:41.960Z,6.90
2022-10-20T17:20:13.107Z,7.00
2022-10-20T17:22:48.528Z,7.83
2022-10-20T17:25:18.828Z,7.23
2022-10-20T17:27:53.347Z,6.80
2022-10-20T17:30:25.044Z,7.57
2022-10-20T17:32:54.983Z,6.87
2022-10-20T17:35:25.947Z,8.27
2022-10-20T17:38:04.467Z,7.47
2022-10-20T17:40:42.657Z,7.13
2022-10-20T17:43:21.913Z,8.60
2022-10-20T17:46:03.429Z,7.83
2022-10-20T17:48:51.058Z,7.07
2022-10-20T17:51:34.942Z,7.60
2022-10-20T17:54:21.485Z,7.67
2022-10-20T17:57:00.094Z,7.43
2022-10-20T17:59:42.465Z,8.37
2022-10-20T18:02:25.603Z,9.50
2022-10-20T18:05:01.459Z,6.93
2022-10-20T18:07:57.322Z,8.40
2022-10-20T18:10:33.246Z,8.90
2022-10-20T18:13:04.584Z,8.37
2022-10-20T18:15:40.009Z,6.60
2022-10-20T18:18:11.055Z,7.80
2022-10-20T18:20:42.567Z,8.83
2022-10-20T18:23:15.671Z,7.60
2022-10-20T18:25:51.488Z,8.97
2022-10-20T18:28:24.769Z,9.03
2022-10-20T18:30:56.928Z,8.27
2022-10-20T18:33:27.889Z,7.87
2022-10-20T18:35:59.552Z,8.17
2022-10-20T18:38:32.173Z,8.47
2022-10-20T18:41:13.738Z,9.23
2022-10-20T18:43:46.510Z,10.97
2022-10-20T18:46:40.013Z,10.13
2022-10-20T18:49:34.346Z,11.00
2022-10-20T18:52:10.974Z,9.20
2022-10-20T18:54:42.011Z,7.90
2022-10-20T18:57:14.910Z,7.90
2022-10-20T18:59:47.609Z,10.10
2022-10-20T19:02:28.578Z,8.87
2022-10-20T19:05:02.431Z,8.93
2022-10-20T19:07:37.984Z,8.70
2022-10-20T19:10:14.131Z,7.30
2022-10-20T19:12:47.220Z,9.63
2022-10-20T19:15:19.224Z,7.67
2022-10-20T19:17:50.547Z,8.93
2022-10-20T19:20:24.192Z,8.30
2022-10-20T19:22:57.574Z,8.23
2022-10-20T19:25:31.684Z,8.10
2022-10-20T19:28:05.520Z,7.30
2022-10-20T19:30:38.826Z,8.13
2022-10-20T19:33:11.379Z,9.03
2022-10-20T19:35:43.932Z,8.60
2022-10-20T19:38:18.270Z,8.30
2022-10-20T19:40:49.795Z,7.23
2022-10-20T19:43:24.299Z,7.80
2022-10-20T19:45:54.468Z,7.30
2022-10-20T19:48:24.680Z,7.77
2022-10-20T19:50:57.506Z,7.20
2022-10-20T19:53:30.434Z,7.13
2022-10-20T19:56:02.154Z,7.47
2022-10-20T19:58:35.207Z,8.00
2022-10-20T20:01:06.477Z,7.00
2022-10-20T20:03:38.273Z,6.97
2022-10-20T20:06:10.602Z,8.13
2022-10-20T20:08:41.108Z,6.53
2022-10-20T20:11:13.566Z,7.27
2022-10-20T20:13:45.547Z,7.83
2022-10-20T20:16:15.366Z,7.20
2022-10-20T20:18:45.543Z,8.10
2022-10-20T20:21:16.546Z,8.10
2022-10-20T20:24:01.625Z,7.40
2022-10-20T20:26:31.877Z,7.77
2022-10-20T20:29:01.713Z,7.57
2022-10-20T20:31:30.842Z,7.23
2022-10-20T20:33:59.358Z,7.63
2022-10-20T20:36:28.733Z,7.80
2022-10-20T20:38:58.319Z,8.13
2022-10-20T20:41:28.766Z,7.87
2022-10-20T20:43:57.957Z,7.83
2022-10-20T20:46:33.680Z,7.90
2022-10-20T20:49:05.722Z,7.97
2022-10-20T20:51:35.954Z,7.90
2022-10-20T20:54:04.926Z,7.57
2022-10-20T20:56:33.612Z,7.83
2022-10-20T20:59:03.085Z,7.03
2022-10-20T21:01:34.076Z,7.83
2022-10-20T21:04:03.719Z,7.53
2022-10-20T21:06:56.423Z,7.70
2022-10-20T21:09:21.884Z,8.30
2022-10-20T21:11:50.597Z,8.83
2022-10-20T21:14:20.927Z,8.03
2022-10-20T21:16:51.106Z,8.40
2022-10-20T21:19:23.429Z,8.70
2022-10-20T21:21:58.290Z,8.23
2022-10-20T21:24:27.442Z,8.43
2022-10-20T21:26:55.868Z,9.83
2022-10-20T21:29:24.735Z,7.83
2022-10-20T21:31:55.701Z,7.23
2022-10-20T21:34:24.098Z,8.10
2022-10-20T21:36:53.533Z,8.27
2022-10-20T21:39:21.910Z,8.77
2022-10-20T21:41:51.583Z,9.13
2022-10-20T21:44:20.112Z,8.00
2022-10-20T21:46:50.195Z,7.80
2022-10-20T21:49:25.415Z,8.27
2022-10-20T21:51:55.591Z,9.53
2022-10-20T21:54:27.150Z,7.97
2022-10-20T21:56:56.547Z,7.50
2022-10-20T21:59:26.527Z,8.83
2022-10-20T22:01:56.052Z,8.60
2022-10-20T22:04:29.045Z,8.70
2022-10-20T22:06:59.522Z,9.07
2022-10-20T22:09:28.331Z,9.40
2022-10-20T22:11:58.566Z,8.83
2022-10-20T22:14:27.345Z,8.07
2022-10-20T22:16:56.775Z,8.83
2022-10-20T22:19:29.239Z,7.57
2022-10-20T22:24:27.891Z,9.40
2022-10-20T22:26:56.350Z,9.20
2022-10-20T22:29:24.847Z,9.43
2022-10-20T22:31:53.271Z,9.83
2022-10-20T22:34:22.022Z,8.80
2022-10-20T22:36:51.730Z,9.60
2022-10-20T22:39:20.548Z,9.20
2022-10-20T22:41:48.947Z,9.17
2022-10-20T22:44:19.789Z,8.60
2022-10-20T22:46:48.094Z,9.23
2022-10-20T22:49:16.614Z,9.17
2022-10-20T22:51:45.034Z,10.60
2022-10-20T22:54:14.777Z,10.40
2022-10-20T22:56:43.206Z,10.57
2022-10-20T22:59:11.702Z,10.20
2022-10-20T23:01:40.077Z,9.03
2022-10-20T23:04:08.548Z,11.70
2022-10-20T23:06:36.890Z,10.50
2022-10-20T23:09:05.507Z,9.60
2022-10-20T23:11:35.571Z,10.60
2022-10-20T23:14:04.102Z,9.10
2022-10-20T23:16:32.421Z,11.10
2022-10-20T23:19:00.872Z,9.77
2022-10-20T23:21:29.266Z,10.73
2022-10-20T23:23:57.665Z,9.90
2022-10-20T23:26:26.002Z,11.17
2022-10-20T23:28:56.040Z,9.73
2022-10-20T23:31:25.508Z,10.70
2022-10-20T23:33:56.286Z,11.23
2022-10-20T23:36:24.915Z,10.93
2022-10-20T23:38:53.428Z,10.73
2022-10-20T23:41:21.983Z,11.43
2022-10-20T23:43:50.395Z,11.13
2022-10-20T23:46:20.205Z,11.57
2022-10-20T23:48:48.617Z,11.47
2022-10-20T23:51:17.857Z,10.87
2022-10-20T23:53:46.305Z,11.10
2022-10-20T23:56:14.650Z,11.63
2022-10-20T23:58:43.965Z,12.50
